createdAt,value
2023-04-09T00:00:27.582Z,8.55
2023-04-09T00:02:55.647Z,8.55
2023-04-09T00:05:23.044Z,8.85
2023-04-09T00:07:50.496Z,8.46
2023-04-09T00:10:18.098Z,8.61
2023-04-09T00:12:45.524Z,8.74
2023-04-09T00:15:20.641Z,8.68
2023-04-09T00:17:56.305Z,9.00
2023-04-09T00:20:23.740Z,8.62
2023-04-09T00:22:51.853Z,8.79
2023-04-09T00:25:20.056Z,9.00
2023-04-09T00:27:47.554Z,8.79
2023-04-09T00:30:14.973Z,9.01
2023-04-09T00:32:42.610Z,8.86
2023-04-09T00:35:10.367Z,8.86
2023-04-09T00:37:37.762Z,8.71
2023-04-09T00:40:06.170Z,8.39
2023-04-09T00:42:34.041Z,8.74
2023-04-09T00:45:01.609Z,8.69
2023-04-09T00:47:29.581Z,8.49
2023-04-09T00:49:57.059Z,8.59
2023-04-09T00:52:24.704Z,8.65
2023-04-09T00:54:52.776Z,8.71
2023-04-09T00:57:20.353Z,8.20
2023-04-09T00:59:47.712Z,7.99
2023-04-09T01:02:15.668Z,7.59
2023-04-09T01:04:43.649Z,8.18
2023-04-09T01:07:19.972Z,8.52
2023-04-09T01:09:56.532Z,8.78
2023-04-09T01:12:33.525Z,8.62
2023-04-09T01:15:11.421Z,8.60
2023-04-09T01:17:46.790Z,8.59
2023-04-09T01:20:23.444Z,8.77
2023-04-09T01:23:15.791Z,8.55
2023-04-09T01:26:10.369Z,8.65
2023-04-09T01:28:49.410Z,7.76
2023-04-09T01:31:21.069Z,7.28
2023-04-09T01:33:48.449Z,7.58
2023-04-09T01:36:15.923Z,7.42
2023-04-09T01:38:43.657Z,7.50
2023-04-09T01:41:14.429Z,7.76
2023-04-09T01:43:41.886Z,8.06
2023-04-09T01:46:09.566Z,7.95
2023-04-09T01:48:37.006Z,8.19
2023-04-09T01:51:04.629Z,8.34
2023-04-09T01:53:32.293Z,8.17
2023-04-09T01:56:00.345Z,8.09
2023-04-09T01:58:27.856Z,8.08
2023-04-09T02:00:59.234Z,8.55
2023-04-09T02:03:34.397Z,8.38
2023-04-09T02:06:14.618Z,8.09
2023-04-09T02:08:47.012Z,8.44
2023-04-09T02:11:15.004Z,8.48
2023-04-09T02:13:42.644Z,8.25
2023-04-09T02:16:11.450Z,8.53
2023-04-09T02:18:39.083Z,8.13
2023-04-09T02:21:06.950Z,8.13
2023-04-09T02:23:35.079Z,7.88
2023-04-09T02:26:02.635Z,8.27
2023-04-09T02:28:30.277Z,8.20
2023-04-09T02:30:58.003Z,8.24
2023-04-09T02:33:25.446Z,8.26
2023-04-09T02:35:52.839Z,8.19
2023-04-09T02:38:20.580Z,8.39
2023-04-09T02:40:47.941Z,7.98
2023-04-09T02:43:15.357Z,8.19
2023-04-09T02:45:42.998Z,7.73
2023-04-09T02:48:10.385Z,7.86
2023-04-09T02:50:37.738Z,7.84
2023-04-09T02:53:05.400Z,8.06
2023-04-09T02:55:32.784Z,8.30
2023-04-09T02:58:00.510Z,8.14
2023-04-09T03:00:28.205Z,7.69
2023-04-09T03:02:56.312Z,8.14
2023-04-09T03:05:23.938Z,7.73
2023-04-09T03:07:51.643Z,7.88
2023-04-09T03:10:19.018Z,8.20
2023-04-09T03:12:47.860Z,8.09
2023-04-09T03:15:15.512Z,7.53
2023-04-09T03:17:42.884Z,7.85
2023-04-09T03:20:10.430Z,7.80
2023-04-09T03:22:38.940Z,7.81
2023-04-09T03:25:07.409Z,7.69
2023-04-09T03:27:35.083Z,7.79
2023-04-09T03:30:03.358Z,7.72
2023-04-09T03:32:31.783Z,7.23
2023-04-09T03:34:59.169Z,7.23
2023-04-09T03:37:26.995Z,7.05
2023-04-09T03:39:54.904Z,7.08
2023-04-09T03:42:22.714Z,7.20
2023-04-09T03:44:50.381Z,7.03
2023-04-09T03:47:17.970Z,7.14
2023-04-09T03:49:45.363Z,7.16
2023-04-09T03:52:13.593Z,6.94
2023-04-09T03:54:43.424Z,6.83
2023-04-09T03:57:11.960Z,6.83
2023-04-09T03:59:40.281Z,7.09
2023-04-09T04:02:07.834Z,7.00
2023-04-09T04:04:38.732Z,6.95
2023-04-09T04:07:08.736Z,7.11
2023-04-09T04:09:37.408Z,7.07
2023-04-09T04:12:05.335Z,6.85
2023-04-09T04:14:34.145Z,7.10
2023-04-09T04:17:02.355Z,7.15
2023-04-09T04:19:30.385Z,7.25
2023-04-09T04:21:57.962Z,7.22
2023-04-09T04:24:25.753Z,7.24
2023-04-09T04:26:53.127Z,7.25
2023-04-09T04:29:20.596Z,7.42
2023-04-09T04:31:48.733Z,7.68
2023-04-09T04:34:16.738Z,7.87
2023-04-09T04:36:45.297Z,7.81
2023-04-09T04:39:13.020Z,7.57
2023-04-09T04:41:41.506Z,7.88
2023-04-09T04:44:09.124Z,7.91
2023-04-09T04:46:37.459Z,7.60
2023-04-09T04:49:05.375Z,7.82
2023-04-09T04:51:33.694Z,8.10
2023-04-09T04:54:01.642Z,8.25
2023-04-09T04:56:29.365Z,8.08
2023-04-09T04:58:57.646Z,8.03
2023-04-09T05:01:25.434Z,8.12
2023-04-09T05:03:53.612Z,7.77
2023-04-09T05:06:22.964Z,8.06
2023-04-09T05:08:51.010Z,8.44
2023-04-09T05:11:18.598Z,8.51
2023-04-09T05:13:46.847Z,8.58
2023-04-09T05:16:18.690Z,8.41
2023-04-09T05:18:47.155Z,8.42
2023-04-09T05:21:14.833Z,8.75
2023-04-09T05:23:42.779Z,8.76
2023-04-09T05:26:10.682Z,8.85
2023-04-09T05:28:38.737Z,8.74
2023-04-09T05:31:12.855Z,8.74
2023-04-09T05:33:42.375Z,8.69
2023-04-09T05:36:17.387Z,9.00
2023-04-09T05:38:46.413Z,9.10
2023-04-09T05:41:14.040Z,9.28
2023-04-09T05:43:45.728Z,8.92
2023-04-09T05:46:13.546Z,8.69
2023-04-09T05:48:41.526Z,9.12
2023-04-09T05:51:09.976Z,9.09
2023-04-09T05:53:37.819Z,9.24
2023-04-09T05:56:13.502Z,9.22
2023-04-09T05:58:41.890Z,9.22
2023-04-09T06:01:10.222Z,9.53
2023-04-09T06:03:38.084Z,9.46
2023-04-09T06:06:05.672Z,9.43
2023-04-09T06:08:34.606Z,9.70
2023-04-09T06:11:02.229Z,9.47
2023-04-09T06:13:29.662Z,9.59
2023-04-09T06:15:57.109Z,9.76
2023-04-09T06:18:24.751Z,9.43
2023-04-09T06:21:01.718Z,9.52
2023-04-09T06:23:29.415Z,9.74
2023-04-09T06:25:56.793Z,9.38
2023-04-09T06:28:24.288Z,9.14
2023-04-09T06:30:53.581Z,9.01
2023-04-09T06:33:21.599Z,9.24
2023-04-09T06:35:49.237Z,9.52
2023-04-09T06:38:17.102Z,9.57
2023-04-09T06:40:44.584Z,9.75
2023-04-09T06:43:11.958Z,9.12
2023-04-09T06:45:41.145Z,9.04
2023-04-09T06:48:08.641Z,8.84
2023-04-09T06:50:36.088Z,8.94
2023-04-09T06:53:03.720Z,9.07
2023-04-09T06:55:31.047Z,9.83
2023-04-09T06:57:58.411Z,9.89
2023-04-09T07:00:26.157Z,10.36
2023-04-09T07:02:53.792Z,9.73
2023-04-09T07:05:21.558Z,9.42
2023-04-09T07:07:49.165Z,9.69
2023-04-09T07:10:16.558Z,9.54
2023-04-09T07:12:43.911Z,9.48
2023-04-09T07:15:11.559Z,9.76
2023-04-09T07:17:38.955Z,10.35
2023-04-09T07:20:06.604Z,10.17
2023-04-09T07:22:34.261Z,10.25
2023-04-09T07:25:01.781Z,10.10
2023-04-09T07:27:29.232Z,10.49
2023-04-09T07:29:57.903Z,10.00
2023-04-09T07:32:26.255Z,10.38
2023-04-09T07:34:54.134Z,10.59
2023-04-09T07:37:21.850Z,11.04
2023-04-09T07:39:49.656Z,11.35
2023-04-09T07:42:17.102Z,11.45
2023-04-09T07:44:44.733Z,11.49
2023-04-09T07:47:12.978Z,12.14
2023-04-09T07:49:40.358Z,12.02
2023-04-09T07:52:08.187Z,12.09
2023-04-09T07:54:35.774Z,11.16
2023-04-09T07:57:03.186Z,12.01
2023-04-09T07:59:31.730Z,12.23
2023-04-09T08:01:59.512Z,12.68
2023-04-09T08:04:27.428Z,12.90
2023-04-09T08:06:54.894Z,13.02
2023-04-09T08:09:22.275Z,12.88
2023-04-09T08:11:50.394Z,12.62
2023-04-09T08:14:17.883Z,13.56
2023-04-09T08:16:49.944Z,13.55
2023-04-09T08:19:18.022Z,13.46
2023-04-09T08:21:46.198Z,13.66
2023-04-09T08:24:13.664Z,13.70
2023-04-09T08:26:41.759Z,13.88
2023-04-09T08:29:10.998Z,14.30
2023-04-09T08:31:38.559Z,13.49
2023-04-09T08:34:06.222Z,12.84
2023-04-09T08:36:35.034Z,13.38
2023-04-09T08:39:02.929Z,13.33
2023-04-09T08:41:30.858Z,14.32
2023-04-09T08:43:59.549Z,12.29
2023-04-09T08:46:27.743Z,12.86
2023-04-09T08:48:56.242Z,12.86
2023-04-09T08:51:24.099Z,13.42
2023-04-09T08:54:03.997Z,13.69
2023-04-09T08:56:32.618Z,13.98
2023-04-09T08:59:00.001Z,11.82
2023-04-09T09:01:28.614Z,13.12
2023-04-09T09:03:57.364Z,13.57
2023-04-09T09:06:26.171Z,14.04
2023-04-09T09:09:12.783Z,14.61
2023-04-09T09:11:44.769Z,12.61
2023-04-09T09:14:13.333Z,12.44
2023-04-09T09:16:44.800Z,13.16
2023-04-09T09:19:24.290Z,13.67
2023-04-09T09:21:58.643Z,14.09
2023-04-09T09:24:26.060Z,13.97
2023-04-09T09:26:59.800Z,13.93
2023-04-09T09:29:28.264Z,14.34
2023-04-09T09:31:56.298Z,14.28
2023-04-09T09:34:24.453Z,14.66
2023-04-09T09:36:51.835Z,14.81
2023-04-09T09:39:19.582Z,14.95
2023-04-09T09:41:48.777Z,15.29
2023-04-09T09:44:32.619Z,14.20
2023-04-09T09:47:00.648Z,13.54
2023-04-09T09:49:28.038Z,12.41
2023-04-09T09:51:57.675Z,12.85
2023-04-09T09:54:25.679Z,13.04
2023-04-09T09:56:53.106Z,13.46
2023-04-09T09:59:23.853Z,13.91
2023-04-09T10:01:54.947Z,13.97
2023-04-09T10:04:22.765Z,14.01
2023-04-09T10:06:52.106Z,14.05
2023-04-09T10:09:20.706Z,11.86
2023-04-09T10:11:48.811Z,11.03
2023-04-09T10:14:16.778Z,12.08
2023-04-09T10:16:44.173Z,12.08
2023-04-09T10:19:14.232Z,13.06
2023-04-09T10:21:42.887Z,12.76
2023-04-09T10:24:10.480Z,13.32
2023-04-09T10:26:41.079Z,13.79
2023-04-09T10:29:10.016Z,14.05
2023-04-09T10:32:08.450Z,13.27
2023-04-09T10:34:42.913Z,13.30
2023-04-09T10:37:24.332Z,13.94
2023-04-09T10:39:52.540Z,14.02
2023-04-09T10:42:27.432Z,14.26
2023-04-09T10:45:05.138Z,13.51
2023-04-09T10:47:36.647Z,13.54
2023-04-09T10:50:20.347Z,13.27
2023-04-09T10:52:51.692Z,13.54
2023-04-09T10:55:41.930Z,12.89
2023-04-09T10:58:13.474Z,14.01
2023-04-09T11:00:45.159Z,13.77
2023-04-09T11:03:30.491Z,14.08
2023-04-09T11:06:09.432Z,13.30
2023-04-09T11:08:38.412Z,12.84
2023-04-09T11:11:05.990Z,12.63
2023-04-09T11:13:34.161Z,11.96
2023-04-09T11:16:04.247Z,11.97
2023-04-09T11:18:33.864Z,11.80
2023-04-09T11:21:02.221Z,12.99
2023-04-09T11:23:29.895Z,13.63
2023-04-09T11:25:57.299Z,14.17
2023-04-09T11:28:24.658Z,14.84
2023-04-09T11:30:52.385Z,15.04
2023-04-09T11:33:20.483Z,15.12
2023-04-09T11:35:48.541Z,14.60
2023-04-09T11:38:16.371Z,15.45
2023-04-09T11:40:51.446Z,15.60
2023-04-09T11:43:20.999Z,15.77
2023-04-09T11:45:48.918Z,13.41
2023-04-09T11:48:18.519Z,13.71
2023-04-09T11:50:46.814Z,14.42
2023-04-09T11:53:20.751Z,14.75
2023-04-09T11:55:52.230Z,13.88
2023-04-09T11:58:23.518Z,14.44
2023-04-09T12:01:09.298Z,12.45
2023-04-09T12:03:37.811Z,13.65
2023-04-09T12:06:06.135Z,14.29
2023-04-09T12:08:37.273Z,13.52
2023-04-09T12:11:11.874Z,14.32
2023-04-09T12:13:43.251Z,14.71
2023-04-09T12:16:14.367Z,14.79
2023-04-09T12:18:41.929Z,14.83
2023-04-09T12:21:09.308Z,14.54
2023-04-09T12:23:36.966Z,14.50
2023-04-09T12:26:04.411Z,14.68
2023-04-09T12:28:31.858Z,13.91
2023-04-09T12:30:59.653Z,14.24
2023-04-09T12:33:27.292Z,14.21
2023-04-09T12:35:54.673Z,14.58
2023-04-09T12:38:22.354Z,14.74
2023-04-09T12:40:49.692Z,13.44
2023-04-09T12:43:17.089Z,12.85
2023-04-09T12:45:44.849Z,13.02
2023-04-09T12:48:12.480Z,12.57
2023-04-09T12:50:39.976Z,13.23
2023-04-09T12:53:08.870Z,13.44
2023-04-09T12:55:36.210Z,13.53
2023-04-09T12:58:03.571Z,13.42
2023-04-09T13:00:31.353Z,13.84
2023-04-09T13:02:58.963Z,13.29
2023-04-09T13:05:26.555Z,14.03
2023-04-09T13:07:54.147Z,13.91
2023-04-09T13:10:21.522Z,14.41
2023-04-09T13:12:48.887Z,14.61
2023-04-09T13:15:16.521Z,14.79
2023-04-09T13:17:43.905Z,14.53
2023-04-09T13:20:11.527Z,13.93
2023-04-09T13:22:39.313Z,12.80
2023-04-09T13:25:06.802Z,13.23
2023-04-09T13:27:34.163Z,13.58
2023-04-09T13:30:01.824Z,13.90
2023-04-09T13:32:29.308Z,12.40
2023-04-09T13:34:58.004Z,12.89
2023-04-09T13:37:26.099Z,13.13
2023-04-09T13:39:53.418Z,13.04
2023-04-09T13:42:20.895Z,13.13
2023-04-09T13:44:48.529Z,12.73
2023-04-09T13:47:16.833Z,12.31
2023-04-09T13:49:44.184Z,13.08
2023-04-09T13:52:11.927Z,12.92
2023-04-09T13:54:39.319Z,12.17
2023-04-09T13:57:06.906Z,13.02
2023-04-09T13:59:34.610Z,12.59
2023-04-09T14:02:02.179Z,11.73
2023-04-09T14:04:30.417Z,13.17
2023-04-09T14:06:57.886Z,11.56
2023-04-09T14:09:25.236Z,11.51
2023-04-09T14:11:54.779Z,11.37
2023-04-09T14:14:22.111Z,12.50
2023-04-09T14:16:50.391Z,12.67
2023-04-09T14:19:18.108Z,12.35
2023-04-09T14:21:45.474Z,12.07
2023-04-09T14:24:12.834Z,13.00
2023-04-09T14:26:40.856Z,13.30
2023-04-09T14:29:08.239Z,13.41
2023-04-09T14:31:35.787Z,12.95
2023-04-09T14:34:03.424Z,13.32
2023-04-09T14:36:32.226Z,12.85
2023-04-09T14:39:00.211Z,13.57
2023-04-09T14:41:28.180Z,13.35
2023-04-09T14:43:55.715Z,13.64
2023-04-09T14:46:23.062Z,14.26
2023-04-09T14:48:50.918Z,14.08
2023-04-09T14:51:18.482Z,14.17
2023-04-09T14:53:45.855Z,13.47
2023-04-09T14:56:13.529Z,12.67
2023-04-09T14:58:40.994Z,11.92
2023-04-09T15:01:08.443Z,12.66
2023-04-09T15:03:36.340Z,13.21
2023-04-09T15:06:04.184Z,12.38
2023-04-09T15:08:31.506Z,12.81
2023-04-09T15:10:59.167Z,11.98
2023-04-09T15:13:26.550Z,12.02
2023-04-09T15:15:54.051Z,11.61
2023-04-09T15:18:21.926Z,11.49
2023-04-09T15:20:49.373Z,11.60
2023-04-09T15:23:16.748Z,12.51
2023-04-09T15:25:44.368Z,13.03
2023-04-09T15:28:11.739Z,13.05
2023-04-09T15:30:39.210Z,12.80
2023-04-09T15:33:06.913Z,13.14
2023-04-09T15:35:34.824Z,13.28
2023-04-09T15:38:02.205Z,12.81
2023-04-09T15:40:31.102Z,12.84
2023-04-09T15:42:58.459Z,11.83
2023-04-09T15:45:26.492Z,11.92
2023-04-09T15:47:54.270Z,12.76
2023-04-09T15:50:21.755Z,12.72
2023-04-09T15:52:49.117Z,11.98
2023-04-09T15:55:16.870Z,11.72
2023-04-09T15:57:46.829Z,11.32
2023-04-09T16:00:15.349Z,11.33
2023-04-09T16:02:43.032Z,11.75
2023-04-09T16:05:10.472Z,11.24
2023-04-09T16:07:39.375Z,11.27
2023-04-09T16:10:07.356Z,11.65
2023-04-09T16:12:34.709Z,11.35
2023-04-09T16:15:02.495Z,12.55
2023-04-09T16:17:30.922Z,11.54
2023-04-09T16:19:58.421Z,11.29
2023-04-09T16:22:25.998Z,12.18
2023-04-09T16:24:53.624Z,10.79
2023-04-09T16:27:21.192Z,11.23
2023-04-09T16:29:48.524Z,10.90
2023-04-09T16:32:16.705Z,11.23
2023-04-09T16:34:44.054Z,11.12
2023-04-09T16:37:11.464Z,11.00
2023-04-09T16:39:39.145Z,11.19
2023-04-09T16:42:07.080Z,10.47
2023-04-09T16:44:34.475Z,10.60
2023-04-09T16:47:02.713Z,10.72
2023-04-09T16:49:31.402Z,10.61
2023-04-09T16:51:58.808Z,10.43
2023-04-09T16:54:26.464Z,10.54
2023-04-09T16:56:53.839Z,10.25
2023-04-09T16:59:21.434Z,10.16
2023-04-09T17:01:49.282Z,10.53
2023-04-09T17:04:17.142Z,10.39
2023-04-09T17:06:44.586Z,10.22
2023-04-09T17:09:12.226Z,9.84
2023-04-09T17:11:39.600Z,10.64
2023-04-09T17:14:06.995Z,10.29
2023-04-09T17:16:34.695Z,10.72
2023-04-09T17:19:02.100Z,10.40
2023-04-09T17:21:29.478Z,10.31
2023-04-09T17:23:57.116Z,10.49
2023-04-09T17:26:24.720Z,10.72
2023-04-09T17:28:52.683Z,11.16
2023-04-09T17:31:24.077Z,10.80
2023-04-09T17:33:51.744Z,10.46
2023-04-09T17:36:19.980Z,10.45
2023-04-09T17:38:48.510Z,10.18
2023-04-09T17:41:16.033Z,9.97
2023-04-09T17:43:43.424Z,9.98
2023-04-09T17:46:11.763Z,10.10
2023-04-09T17:48:39.329Z,9.84
2023-04-09T17:51:07.039Z,9.89
2023-04-09T17:53:34.677Z,9.79
2023-04-09T17:56:04.022Z,9.78
2023-04-09T17:58:31.825Z,10.15
2023-04-09T18:00:59.640Z,10.29
2023-04-09T18:03:27.595Z,10.59
2023-04-09T18:05:55.325Z,10.23
2023-04-09T18:08:22.685Z,10.84
2023-04-09T18:11:04.922Z,11.05
2023-04-09T18:13:38.702Z,10.94
2023-04-09T18:16:12.664Z,11.32
2023-04-09T18:18:40.356Z,11.08
2023-04-09T18:21:08.023Z,11.23
2023-04-09T18:23:35.478Z,10.92
2023-04-09T18:26:02.988Z,11.12
2023-04-09T18:28:30.639Z,11.23
2023-04-09T18:30:58.876Z,11.23
2023-04-09T18:33:27.074Z,11.25
2023-04-09T18:35:54.811Z,11.14
2023-04-09T18:38:22.651Z,11.15
2023-04-09T18:40:50.032Z,10.92
2023-04-09T18:43:17.719Z,11.17
2023-04-09T18:45:45.079Z,11.10
2023-04-09T18:48:12.528Z,11.06
2023-04-09T18:50:40.283Z,11.04
2023-04-09T18:53:07.665Z,11.08
2023-04-09T18:55:38.139Z,11.09
2023-04-09T18:58:08.774Z,10.79
2023-04-09T19:00:36.552Z,10.72
2023-04-09T19:03:04.698Z,10.73
2023-04-09T19:05:32.884Z,10.73
2023-04-09T19:08:04.292Z,9.58
2023-04-09T19:10:32.907Z,9.66
2023-04-09T19:13:00.274Z,9.97
2023-04-09T19:15:28.497Z,10.06
2023-04-09T19:17:56.576Z,9.95
2023-04-09T19:20:24.042Z,10.34
2023-04-09T19:22:54.336Z,10.21
2023-04-09T19:25:22.854Z,10.31
2023-04-09T19:27:50.366Z,10.03
2023-04-09T19:30:17.882Z,10.14
2023-04-09T19:32:45.654Z,9.50
2023-04-09T19:35:13.062Z,10.09
2023-04-09T19:37:40.800Z,9.90
2023-04-09T19:40:08.986Z,9.51
2023-04-09T19:42:36.330Z,9.59
2023-04-09T19:45:03.769Z,9.90
2023-04-09T19:47:31.755Z,9.97
2023-04-09T19:49:59.102Z,9.53
2023-04-09T19:52:27.011Z,9.70
2023-04-09T19:54:55.803Z,9.68
2023-04-09T19:57:23.191Z,9.53
2023-04-09T19:59:52.170Z,9.50
2023-04-09T20:02:19.932Z,9.17
2023-04-09T20:04:47.635Z,9.31
2023-04-09T20:07:15.689Z,9.14
2023-04-09T20:09:43.571Z,9.59
2023-04-09T20:12:11.237Z,9.70
2023-04-09T20:14:39.383Z,9.38
2023-04-09T20:17:08.851Z,9.30
2023-04-09T20:19:37.862Z,9.40
2023-04-09T20:22:05.362Z,9.20
2023-04-09T20:24:33.826Z,9.24
2023-04-09T20:27:01.736Z,9.31
2023-04-09T20:29:29.315Z,9.28
2023-04-09T20:31:56.858Z,9.30
2023-04-09T20:34:26.918Z,9.27
2023-04-09T20:36:54.656Z,9.25
2023-04-09T20:39:22.380Z,9.19
2023-04-09T20:41:50.019Z,9.19
2023-04-09T20:44:17.349Z,9.09
2023-04-09T20:46:44.738Z,8.64
2023-04-09T20:49:13.103Z,8.45
2023-04-09T20:51:40.586Z,8.62
2023-04-09T20:54:07.943Z,9.14
2023-04-09T20:56:35.861Z,9.18
2023-04-09T20:59:03.484Z,8.99
2023-04-09T21:01:32.313Z,9.18
2023-04-09T21:04:00.134Z,8.67
2023-04-09T21:06:27.597Z,8.99
2023-04-09T21:08:55.956Z,8.86
2023-04-09T21:11:24.266Z,8.88
2023-04-09T21:13:54.978Z,9.03
2023-04-09T21:16:23.039Z,8.90
2023-04-09T21:18:50.933Z,8.78
2023-04-09T21:21:18.597Z,8.35
2023-04-09T21:23:45.952Z,8.88
2023-04-09T21:26:15.027Z,8.65
2023-04-09T21:28:42.705Z,9.01
2023-04-09T21:31:11.232Z,8.70
2023-04-09T21:33:39.267Z,8.50
2023-04-09T21:36:08.049Z,8.58
2023-04-09T21:38:35.735Z,8.83
2023-04-09T21:41:03.365Z,8.44
2023-04-09T21:43:30.758Z,8.44
2023-04-09T21:45:58.145Z,8.90
2023-04-09T21:48:26.507Z,8.96
2023-04-09T21:50:53.881Z,8.71
2023-04-09T21:53:21.226Z,8.92
2023-04-09T21:55:48.830Z,8.86
2023-04-09T21:58:16.217Z,8.73
2023-04-09T22:00:43.591Z,8.13
2023-04-09T22:03:11.811Z,7.92
2023-04-09T22:05:39.308Z,8.13
2023-04-09T22:08:07.326Z,8.47
2023-04-09T22:10:34.959Z,8.67
2023-04-09T22:13:02.346Z,8.50
2023-04-09T22:15:29.728Z,8.03
2023-04-09T22:17:57.776Z,7.98
2023-04-09T22:20:26.431Z,8.09
2023-04-09T22:22:54.238Z,8.07
2023-04-09T22:25:22.184Z,8.30
2023-04-09T22:27:53.157Z,7.99
2023-04-09T22:30:24.476Z,8.22
2023-04-09T22:32:52.226Z,8.53
2023-04-09T22:35:19.850Z,8.35
2023-04-09T22:37:47.341Z,8.03
2023-04-09T22:40:15.539Z,8.23
2023-04-09T22:42:43.551Z,8.06
2023-04-09T22:45:11.219Z,8.16
2023-04-09T22:47:39.041Z,7.97
2023-04-09T22:50:07.316Z,8.01
2023-04-09T22:52:34.663Z,7.98
2023-04-09T22:55:02.259Z,8.25
2023-04-09T22:57:29.926Z,8.02
2023-04-09T22:59:57.663Z,8.36
2023-04-09T23:02:26.158Z,8.31
2023-04-09T23:04:53.715Z,8.42
2023-04-09T23:07:21.077Z,8.02
2023-04-09T23:09:48.700Z,7.73
2023-04-09T23:12:16.099Z,7.37
2023-04-09T23:14:43.426Z,7.72
2023-04-09T23:17:11.028Z,8.23
2023-04-09T23:19:38.427Z,8.13
2023-04-09T23:22:05.803Z,8.32
2023-04-09T23:24:33.459Z,8.21
2023-04-09T23:27:00.924Z,8.35
2023-04-09T23:29:28.276Z,8.30
2023-04-09T23:31:56.103Z,8.56
2023-04-09T23:34:23.544Z,8.42
2023-04-09T23:36:51.614Z,8.44
2023-04-09T23:39:19.231Z,8.59
2023-04-09T23:41:46.567Z,8.33
2023-04-09T23:44:13.904Z,8.28
2023-04-09T23:46:41.693Z,8.21
2023-04-09T23:49:09.169Z,8.41
2023-04-09T23:51:36.487Z,8.29
2023-04-09T23:54:04.125Z,8.14
2023-04-09T23:56:31.599Z,8.38
2023-04-09T23:58:59.055Z,8.31
